sensor_id;sensor_type;location;lat;lon;timestamp;P1;P2;P0
69222;PMS7003;56514;51.816;-0.026;2022-12-07T00:02:14;4.00;4.00;4.00
69222;PMS7003;56514;51.816;-0.026;2022-12-07T00:05:23;4.50;4.50;4.25
69222;PMS7003;56514;51.816;-0.026;2022-12-07T00:08:28;3.50;3.50;3.50
69222;PMS7003;56514;51.816;-0.026;2022-12-07T00:11:38;3.25;2.00;1.50
69222;PMS7003;56514;51.816;-0.026;2022-12-07T00:14:47;4.00;4.00;3.25
69222;PMS7003;56514;51.816;-0.026;2022-12-07T00:17:51;4.25;4.25;3.25
69222;PMS7003;56514;51.816;-0.026;2022-12-07T00:21:04;5.50;5.50;3.75
69222;PMS7003;56514;51.816;-0.026;2022-12-07T00:24:24;6.00;6.00;4.50
69222;PMS7003;56514;51.816;-0.026;2022-12-07T00:27:33;1.00;1.00;0.00
69222;PMS7003;56514;51.816;-0.026;2022-12-07T00:30:42;4.67;4.67;3.00
69222;PMS7003;56514;51.816;-0.026;2022-12-07T00:33:27;4.50;4.50;3.75
69222;PMS7003;56514;51.816;-0.026;2022-12-07T00:36:14;6.75;4.75;4.00
69222;PMS7003;56514;51.816;-0.026;2022-12-07T00:39:01;6.00;6.00;3.50
69222;PMS7003;56514;51.816;-0.026;2022-12-07T00:41:46;8.25;6.00;4.00
69222;PMS7003;56514;51.816;-0.026;2022-12-07T00:44:31;6.00;6.00;3.33
69222;PMS7003;56514;51.816;-0.026;2022-12-07T00:47:16;8.50;6.75;5.00
69222;PMS7003;56514;51.816;-0.026;2022-12-07T00:50:00;9.00;7.00;6.00
69222;PMS7003;56514;51.816;-0.026;2022-12-07T00:52:45;6.50;6.50;4.00
69222;PMS7003;56514;51.816;-0.026;2022-12-07T00:55:33;4.00;4.00;4.00
69222;PMS7003;56514;51.816;-0.026;2022-12-07T00:58:19;3.50;3.50;3.50
69222;PMS7003;56514;51.816;-0.026;2022-12-07T01:01:05;3.25;3.25;3.25
69222;PMS7003;56514;51.816;-0.026;2022-12-07T01:03:51;1.00;1.00;0.75
69222;PMS7003;56514;51.816;-0.026;2022-12-07T01:06:35;3.33;3.33;3.00
69222;PMS7003;56514;51.816;-0.026;2022-12-07T01:09:20;3.00;3.00;3.00
69222;PMS7003;56514;51.816;-0.026;2022-12-07T01:12:05;3.75;3.75;3.75
69222;PMS7003;56514;51.816;-0.026;2022-12-07T01:14:50;4.50;4.50;3.25
69222;PMS7003;56514;51.816;-0.026;2022-12-07T01:17:35;4.25;4.25;4.00
69222;PMS7003;56514;51.816;-0.026;2022-12-07T01:20:20;4.50;4.50;3.75
69222;PMS7003;56514;51.816;-0.026;2022-12-07T01:23:05;6.00;6.00;6.00
69222;PMS7003;56514;51.816;-0.026;2022-12-07T01:25:56;3.75;3.75;2.50
69222;PMS7003;56514;51.816;-0.026;2022-12-07T01:28:42;6.00;6.00;4.00
69222;PMS7003;56514;51.816;-0.026;2022-12-07T01:31:28;6.33;6.33;5.33
69222;PMS7003;56514;51.816;-0.026;2022-12-07T01:34:13;6.33;6.33;4.67
69222;PMS7003;56514;51.816;-0.026;2022-12-07T01:36:58;6.67;5.33;5.33
69222;PMS7003;56514;51.816;-0.026;2022-12-07T01:39:43;6.00;6.00;4.50
69222;PMS7003;56514;51.816;-0.026;2022-12-07T01:42:28;5.50;5.50;3.75
69222;PMS7003;56514;51.816;-0.026;2022-12-07T01:48:17;3.00;3.00;3.00
69222;PMS7003;56514;51.816;-0.026;2022-12-07T01:51:10;7.67;7.00;6.00
69222;PMS7003;56514;51.816;-0.026;2022-12-07T01:53:58;4.67;4.67;3.33
69222;PMS7003;56514;51.816;-0.026;2022-12-07T01:56:45;6.25;6.25;4.00
69222;PMS7003;56514;51.816;-0.026;2022-12-07T01:59:36;6.00;6.00;4.00
69222;PMS7003;56514;51.816;-0.026;2022-12-07T02:02:23;7.00;7.00;6.67
69222;PMS7003;56514;51.816;-0.026;2022-12-07T02:05:13;4.50;4.50;4.00
69222;PMS7003;56514;51.816;-0.026;2022-12-07T02:07:59;9.00;6.67;6.00
69222;PMS7003;56514;51.816;-0.026;2022-12-07T02:10:44;6.33;6.33;5.33
69222;PMS7003;56514;51.816;-0.026;2022-12-07T02:13:30;4.00;4.00;3.50
69222;PMS7003;56514;51.816;-0.026;2022-12-07T02:34:56;6.00;6.00;4.00
69222;PMS7003;56514;51.816;-0.026;2022-12-07T02:38:08;6.50;6.00;4.00
69222;PMS7003;56514;51.816;-0.026;2022-12-07T02:44:11;6.00;6.00;4.00
69222;PMS7003;56514;51.816;-0.026;2022-12-07T02:47:03;3.67;3.67;3.67
69222;PMS7003;56514;51.816;-0.026;2022-12-07T02:49:52;6.25;6.25;3.50
69222;PMS7003;56514;51.816;-0.026;2022-12-07T02:52:37;6.50;6.50;5.00
69222;PMS7003;56514;51.816;-0.026;2022-12-07T02:55:24;3.25;3.25;2.25
69222;PMS7003;56514;51.816;-0.026;2022-12-07T03:01:19;4.00;4.00;3.50
69222;PMS7003;56514;51.816;-0.026;2022-12-07T03:10:08;6.00;6.00;4.00
69222;PMS7003;56514;51.816;-0.026;2022-12-07T03:15:50;4.00;4.00;4.00
69222;PMS7003;56514;51.816;-0.026;2022-12-07T03:18:53;5.50;5.50;4.50
69222;PMS7003;56514;51.816;-0.026;2022-12-07T03:21:42;6.00;6.00;4.00
69222;PMS7003;56514;51.816;-0.026;2022-12-07T03:24:32;6.00;6.00;4.00
69222;PMS7003;56514;51.816;-0.026;2022-12-07T03:27:22;4.00;4.00;3.00
69222;PMS7003;56514;51.816;-0.026;2022-12-07T03:30:17;6.50;6.50;6.00
69222;PMS7003;56514;51.816;-0.026;2022-12-07T03:39:47;6.50;6.50;5.00
69222;PMS7003;56514;51.816;-0.026;2022-12-07T03:42:41;3.75;3.75;3.00
69222;PMS7003;56514;51.816;-0.026;2022-12-07T03:45:37;4.00;4.00;3.00
69222;PMS7003;56514;51.816;-0.026;2022-12-07T03:48:49;3.00;3.00;3.00
69222;PMS7003;56514;51.816;-0.026;2022-12-07T03:51:39;3.25;1.00;1.00
69222;PMS7003;56514;51.816;-0.026;2022-12-07T03:54:36;4.00;4.00;3.75
69222;PMS7003;56514;51.816;-0.026;2022-12-07T03:57:26;2.50;2.50;2.50
69222;PMS7003;56514;51.816;-0.026;2022-12-07T04:00:14;3.50;3.50;2.00
69222;PMS7003;56514;51.816;-0.026;2022-12-07T04:03:00;3.00;3.00;3.00
69222;PMS7003;56514;51.816;-0.026;2022-12-07T04:05:45;3.50;3.50;3.00
69222;PMS7003;56514;51.816;-0.026;2022-12-07T04:08:30;3.00;3.00;2.00
69222;PMS7003;56514;51.816;-0.026;2022-12-07T04:11:15;5.50;5.50;3.00
69222;PMS7003;56514;51.816;-0.026;2022-12-07T04:13:59;4.00;4.00;3.00
69222;PMS7003;56514;51.816;-0.026;2022-12-07T04:17:02;3.25;3.25;3.25
69222;PMS7003;56514;51.816;-0.026;2022-12-07T04:19:48;3.75;3.75;3.25
69222;PMS7003;56514;51.816;-0.026;2022-12-07T04:22:36;1.00;1.00;1.00
69222;PMS7003;56514;51.816;-0.026;2022-12-07T04:25:21;6.25;4.25;3.50
69222;PMS7003;56514;51.816;-0.026;2022-12-07T04:28:06;3.00;3.00;2.00
69222;PMS7003;56514;51.816;-0.026;2022-12-07T04:30:51;4.50;4.50;4.25
69222;PMS7003;56514;51.816;-0.026;2022-12-07T04:33:36;3.25;3.25;2.00
69222;PMS7003;56514;51.816;-0.026;2022-12-07T04:36:20;5.00;5.00;4.00
69222;PMS7003;56514;51.816;-0.026;2022-12-07T04:39:06;5.50;4.00;3.25
69222;PMS7003;56514;51.816;-0.026;2022-12-07T04:41:52;4.67;4.67;4.00
69222;PMS7003;56514;51.816;-0.026;2022-12-07T04:44:38;4.00;4.00;3.00
69222;PMS7003;56514;51.816;-0.026;2022-12-07T04:47:24;6.00;6.00;4.00
69222;PMS7003;56514;51.816;-0.026;2022-12-07T04:50:09;3.25;3.25;3.00
69222;PMS7003;56514;51.816;-0.026;2022-12-07T04:52:54;4.00;4.00;2.75
69222;PMS7003;56514;51.816;-0.026;2022-12-07T04:55:39;3.50;3.50;3.25
69222;PMS7003;56514;51.816;-0.026;2022-12-07T04:58:24;3.00;3.00;1.67
69222;PMS7003;56514;51.816;-0.026;2022-12-07T05:01:09;6.00;4.00;3.00
69222;PMS7003;56514;51.816;-0.026;2022-12-07T05:03:54;4.00;4.00;3.00
69222;PMS7003;56514;51.816;-0.026;2022-12-07T05:06:39;3.00;3.00;3.00
69222;PMS7003;56514;51.816;-0.026;2022-12-07T05:09:24;3.67;3.67;3.00
69222;PMS7003;56514;51.816;-0.026;2022-12-07T05:12:09;6.50;6.50;5.00
69222;PMS7003;56514;51.816;-0.026;2022-12-07T05:14:54;4.00;4.00;3.25
69222;PMS7003;56514;51.816;-0.026;2022-12-07T05:17:38;4.00;3.50;2.00
69222;PMS7003;56514;51.816;-0.026;2022-12-07T05:20:24;3.33;3.33;3.33
69222;PMS7003;56514;51.816;-0.026;2022-12-07T05:23:09;4.00;4.00;3.33
69222;PMS7003;56514;51.816;-0.026;2022-12-07T05:25:54;3.25;3.25;3.00
69222;PMS7003;56514;51.816;-0.026;2022-12-07T05:28:39;3.00;3.00;3.00
69222;PMS7003;56514;51.816;-0.026;2022-12-07T05:31:24;3.00;3.00;3.00
69222;PMS7003;56514;51.816;-0.026;2022-12-07T05:34:10;3.00;3.00;1.00
69222;PMS7003;56514;51.816;-0.026;2022-12-07T05:36:55;8.25;4.50;4.00
69222;PMS7003;56514;51.816;-0.026;2022-12-07T05:39:40;4.00;4.00;1.67
69222;PMS7003;56514;51.816;-0.026;2022-12-07T05:42:27;3.00;3.00;2.00
69222;PMS7003;56514;51.816;-0.026;2022-12-07T05:45:11;4.67;4.67;3.33
69222;PMS7003;56514;51.816;-0.026;2022-12-07T05:47:56;5.00;3.25;2.50
69222;PMS7003;56514;51.816;-0.026;2022-12-07T05:50:41;3.00;3.00;3.00
69222;PMS7003;56514;51.816;-0.026;2022-12-07T05:53:26;3.25;3.25;3.25
69222;PMS7003;56514;51.816;-0.026;2022-12-07T05:56:10;5.00;5.00;3.50
69222;PMS7003;56514;51.816;-0.026;2022-12-07T05:58:55;7.33;5.67;3.00
69222;PMS7003;56514;51.816;-0.026;2022-12-07T06:02:00;4.67;4.00;3.67
69222;PMS7003;56514;51.816;-0.026;2022-12-07T06:04:49;4.00;4.00;3.00
69222;PMS7003;56514;51.816;-0.026;2022-12-07T06:07:35;4.00;4.00;3.50
69222;PMS7003;56514;51.816;-0.026;2022-12-07T06:10:20;3.25;3.25;3.00
69222;PMS7003;56514;51.816;-0.026;2022-12-07T06:13:04;6.00;6.00;3.50
69222;PMS7003;56514;51.816;-0.026;2022-12-07T06:15:49;3.75;3.75;3.00
69222;PMS7003;56514;51.816;-0.026;2022-12-07T06:18:37;3.00;3.00;1.00
69222;PMS7003;56514;51.816;-0.026;2022-12-07T06:21:22;1.67;1.67;1.00
69222;PMS7003;56514;51.816;-0.026;2022-12-07T06:24:08;4.00;4.00;4.00
69222;PMS7003;56514;51.816;-0.026;2022-12-07T06:26:55;6.67;4.00;3.00
69222;PMS7003;56514;51.816;-0.026;2022-12-07T06:29:39;2.33;2.33;2.33
69222;PMS7003;56514;51.816;-0.026;2022-12-07T06:32:24;3.00;3.00;3.00
69222;PMS7003;56514;51.816;-0.026;2022-12-07T06:35:09;1.00;1.00;1.00
69222;PMS7003;56514;51.816;-0.026;2022-12-07T06:37:54;3.33;3.33;3.00
69222;PMS7003;56514;51.816;-0.026;2022-12-07T06:40:39;1.67;1.67;1.67
69222;PMS7003;56514;51.816;-0.026;2022-12-07T06:43:23;3.00;3.00;2.33
69222;PMS7003;56514;51.816;-0.026;2022-12-07T06:46:08;3.00;3.00;1.67
69222;PMS7003;56514;51.816;-0.026;2022-12-07T06:48:53;9.00;4.00;3.00
69222;PMS7003;56514;51.816;-0.026;2022-12-07T06:51:38;3.33;3.33;3.00
69222;PMS7003;56514;51.816;-0.026;2022-12-07T06:54:25;3.00;2.33;2.33
69222;PMS7003;56514;51.816;-0.026;2022-12-07T06:57:10;3.00;3.00;1.00
69222;PMS7003;56514;51.816;-0.026;2022-12-07T06:59:55;1.00;1.00;1.00
69222;PMS7003;56514;51.816;-0.026;2022-12-07T07:02:40;1.00;1.00;1.00
69222;PMS7003;56514;51.816;-0.026;2022-12-07T07:05:25;1.00;1.00;1.00
69222;PMS7003;56514;51.816;-0.026;2022-12-07T07:08:10;1.00;1.00;1.00
69222;PMS7003;56514;51.816;-0.026;2022-12-07T07:10:56;3.00;3.00;3.00
69222;PMS7003;56514;51.816;-0.026;2022-12-07T07:13:40;3.00;3.00;3.00
69222;PMS7003;56514;51.816;-0.026;2022-12-07T07:16:25;3.67;3.67;3.67
69222;PMS7003;56514;51.816;-0.026;2022-12-07T07:19:10;3.33;3.33;3.00
69222;PMS7003;56514;51.816;-0.026;2022-12-07T07:21:55;1.00;1.00;1.00
69222;PMS7003;56514;51.816;-0.026;2022-12-07T07:24:39;4.00;4.00;3.00
69222;PMS7003;56514;51.816;-0.026;2022-12-07T07:27:24;4.00;4.00;3.33
69222;PMS7003;56514;51.816;-0.026;2022-12-07T07:30:09;3.00;3.00;1.00
69222;PMS7003;56514;51.816;-0.026;2022-12-07T07:32:58;1.00;1.00;1.00
69222;PMS7003;56514;51.816;-0.026;2022-12-07T07:35:44;3.00;3.00;2.33
69222;PMS7003;56514;51.816;-0.026;2022-12-07T07:38:28;4.00;4.00;3.00
69222;PMS7003;56514;51.816;-0.026;2022-12-07T07:41:13;4.00;4.00;1.67
69222;PMS7003;56514;51.816;-0.026;2022-12-07T07:43:58;5.67;5.67;4.00
69222;PMS7003;56514;51.816;-0.026;2022-12-07T07:46:43;3.00;3.00;3.00
69222;PMS7003;56514;51.816;-0.026;2022-12-07T07:49:27;6.00;6.00;3.67
69222;PMS7003;56514;51.816;-0.026;2022-12-07T07:52:12;3.00;3.00;3.00
69222;PMS7003;56514;51.816;-0.026;2022-12-07T07:54:57;7.00;5.33;5.33
69222;PMS7003;56514;51.816;-0.026;2022-12-07T07:57:42;2.33;2.33;2.33
69222;PMS7003;56514;51.816;-0.026;2022-12-07T08:00:26;1.00;1.00;1.00
69222;PMS7003;56514;51.816;-0.026;2022-12-07T08:03:11;3.00;3.00;3.00
69222;PMS7003;56514;51.816;-0.026;2022-12-07T08:05:56;2.33;2.33;2.33
69222;PMS7003;56514;51.816;-0.026;2022-12-07T08:08:40;4.00;4.00;3.33
69222;PMS7003;56514;51.816;-0.026;2022-12-07T08:11:26;5.00;5.00;3.33
69222;PMS7003;56514;51.816;-0.026;2022-12-07T08:14:11;3.00;3.00;1.00
69222;PMS7003;56514;51.816;-0.026;2022-12-07T08:16:56;4.67;4.67;3.33
69222;PMS7003;56514;51.816;-0.026;2022-12-07T08:19:41;2.00;2.00;1.00
69222;PMS7003;56514;51.816;-0.026;2022-12-07T08:22:26;6.75;5.50;4.00
69222;PMS7003;56514;51.816;-0.026;2022-12-07T08:25:11;3.67;3.67;2.33
69222;PMS7003;56514;51.816;-0.026;2022-12-07T08:27:55;6.67;6.67;4.00
69222;PMS7003;56514;51.816;-0.026;2022-12-07T08:30:40;5.33;5.33;4.00
69222;PMS7003;56514;51.816;-0.026;2022-12-07T08:33:25;3.00;3.00;3.00
69222;PMS7003;56514;51.816;-0.026;2022-12-07T08:36:11;3.50;3.50;3.25
69222;PMS7003;56514;51.816;-0.026;2022-12-07T08:38:56;8.00;8.00;6.67
69222;PMS7003;56514;51.816;-0.026;2022-12-07T08:41:41;6.67;6.00;4.00
69222;PMS7003;56514;51.816;-0.026;2022-12-07T08:44:26;4.00;4.00;4.00
69222;PMS7003;56514;51.816;-0.026;2022-12-07T08:47:11;4.00;4.00;4.00
69222;PMS7003;56514;51.816;-0.026;2022-12-07T08:49:56;5.33;5.33;4.00
69222;PMS7003;56514;51.816;-0.026;2022-12-07T08:52:48;7.00;6.33;6.00
69222;PMS7003;56514;51.816;-0.026;2022-12-07T08:55:36;7.00;7.00;6.00
69222;PMS7003;56514;51.816;-0.026;2022-12-07T08:58:21;5.33;5.33;3.00
69222;PMS7003;56514;51.816;-0.026;2022-12-07T09:01:06;4.67;4.67;4.00
69222;PMS7003;56514;51.816;-0.026;2022-12-07T09:03:51;4.00;4.00;3.00
69222;PMS7003;56514;51.816;-0.026;2022-12-07T09:06:37;6.33;6.33;6.00
69222;PMS7003;56514;51.816;-0.026;2022-12-07T09:09:22;6.00;6.00;4.00
69222;PMS7003;56514;51.816;-0.026;2022-12-07T09:12:07;4.67;4.67;4.00
69222;PMS7003;56514;51.816;-0.026;2022-12-07T09:14:52;5.33;5.33;4.00
69222;PMS7003;56514;51.816;-0.026;2022-12-07T09:17:37;6.00;6.00;5.33
69222;PMS7003;56514;51.816;-0.026;2022-12-07T09:20:22;8.00;8.00;6.33
69222;PMS7003;56514;51.816;-0.026;2022-12-07T09:23:07;9.00;9.00;7.00
69222;PMS7003;56514;51.816;-0.026;2022-12-07T09:25:52;6.00;6.00;4.00
69222;PMS7003;56514;51.816;-0.026;2022-12-07T09:28:37;4.00;4.00;4.00
69222;PMS7003;56514;51.816;-0.026;2022-12-07T09:31:22;4.00;4.00;4.00
69222;PMS7003;56514;51.816;-0.026;2022-12-07T09:34:07;6.00;6.00;4.67
69222;PMS7003;56514;51.816;-0.026;2022-12-07T09:36:52;4.00;4.00;4.00
69222;PMS7003;56514;51.816;-0.026;2022-12-07T09:39:40;6.33;4.00;4.00
69222;PMS7003;56514;51.816;-0.026;2022-12-07T09:42:30;5.33;5.33;3.67
69222;PMS7003;56514;51.816;-0.026;2022-12-07T09:45:27;3.67;3.67;3.67
69222;PMS7003;56514;51.816;-0.026;2022-12-07T09:48:20;4.67;4.67;4.67
69222;PMS7003;56514;51.816;-0.026;2022-12-07T09:51:18;6.67;6.67;6.00
69222;PMS7003;56514;51.816;-0.026;2022-12-07T09:54:04;4.00;4.00;4.00
69222;PMS7003;56514;51.816;-0.026;2022-12-07T09:56:49;5.33;5.33;3.67
69222;PMS7003;56514;51.816;-0.026;2022-12-07T09:59:36;4.00;4.00;3.67
69222;PMS7003;56514;51.816;-0.026;2022-12-07T10:08:15;3.00;2.33;2.33
69222;PMS7003;56514;51.816;-0.026;2022-12-07T10:11:02;3.33;3.33;3.00
69222;PMS7003;56514;51.816;-0.026;2022-12-07T10:13:55;4.00;4.00;4.00
69222;PMS7003;56514;51.816;-0.026;2022-12-07T10:16:56;3.00;3.00;2.33
69222;PMS7003;56514;51.816;-0.026;2022-12-07T10:19:41;3.33;3.33;3.00
69222;PMS7003;56514;51.816;-0.026;2022-12-07T10:22:26;3.00;3.00;3.00
69222;PMS7003;56514;51.816;-0.026;2022-12-07T10:25:19;3.00;3.00;3.00
69222;PMS7003;56514;51.816;-0.026;2022-12-07T10:30:59;4.00;4.00;4.00
69222;PMS7003;56514;51.816;-0.026;2022-12-07T10:33:56;3.00;3.00;3.00
69222;PMS7003;56514;51.816;-0.026;2022-12-07T10:36:43;3.00;3.00;3.00
69222;PMS7003;56514;51.816;-0.026;2022-12-07T10:39:27;3.00;3.00;1.00
69222;PMS7003;56514;51.816;-0.026;2022-12-07T10:42:19;3.67;1.67;1.67
69222;PMS7003;56514;51.816;-0.026;2022-12-07T10:45:13;4.00;4.00;3.00
69222;PMS7003;56514;51.816;-0.026;2022-12-07T10:48:08;4.00;4.00;3.00
69222;PMS7003;56514;51.816;-0.026;2022-12-07T11:00:01;3.25;3.25;3.00
69222;PMS7003;56514;51.816;-0.026;2022-12-07T11:05:56;1.00;1.00;1.00
69222;PMS7003;56514;51.816;-0.026;2022-12-07T11:14:58;2.50;2.50;1.00
69222;PMS7003;56514;51.816;-0.026;2022-12-07T11:17:58;3.00;3.00;3.00
69222;PMS7003;56514;51.816;-0.026;2022-12-07T11:24:05;1.00;1.00;1.00
69222;PMS7003;56514;51.816;-0.026;2022-12-07T11:30:11;1.50;1.50;1.50
69222;PMS7003;56514;51.816;-0.026;2022-12-07T11:38:55;3.75;3.75;3.50
69222;PMS7003;56514;51.816;-0.026;2022-12-07T11:41:43;3.00;3.00;3.00
69222;PMS7003;56514;51.816;-0.026;2022-12-07T11:44:50;3.00;3.00;3.00
69222;PMS7003;56514;51.816;-0.026;2022-12-07T11:47:58;3.00;3.00;3.00
69222;PMS7003;56514;51.816;-0.026;2022-12-07T11:50:50;3.00;3.00;1.00
69222;PMS7003;56514;51.816;-0.026;2022-12-07T11:53:39;3.25;3.25;3.00
69222;PMS7003;56514;51.816;-0.026;2022-12-07T11:56:30;4.00;3.75;3.00
69222;PMS7003;56514;51.816;-0.026;2022-12-07T11:59:23;1.50;1.50;1.50
69222;PMS7003;56514;51.816;-0.026;2022-12-07T12:02:27;3.00;3.00;3.00
69222;PMS7003;56514;51.816;-0.026;2022-12-07T12:05:28;3.75;3.00;3.00
69222;PMS7003;56514;51.816;-0.026;2022-12-07T12:20:32;3.25;3.25;3.00
69222;PMS7003;56514;51.816;-0.026;2022-12-07T12:23:47;3.00;3.00;3.00
69222;PMS7003;56514;51.816;-0.026;2022-12-07T12:26:35;3.00;3.00;3.00
69222;PMS7003;56514;51.816;-0.026;2022-12-07T12:29:32;3.00;3.00;1.50
69222;PMS7003;56514;51.816;-0.026;2022-12-07T12:32:20;3.00;3.00;2.50
69222;PMS7003;56514;51.816;-0.026;2022-12-07T12:38:47;3.00;3.00;3.00
69222;PMS7003;56514;51.816;-0.026;2022-12-07T12:47:40;1.00;1.00;1.00
69222;PMS7003;56514;51.816;-0.026;2022-12-07T12:50:31;4.50;4.50;3.25
69222;PMS7003;56514;51.816;-0.026;2022-12-07T12:53:21;3.00;3.00;3.00
69222;PMS7003;56514;51.816;-0.026;2022-12-07T12:56:17;3.25;2.00;1.00
69222;PMS7003;56514;51.816;-0.026;2022-12-07T12:59:38;2.50;2.50;2.50
69222;PMS7003;56514;51.816;-0.026;2022-12-07T13:03:16;1.00;1.00;1.00
69222;PMS7003;56514;51.816;-0.026;2022-12-07T13:05:39;3.25;3.25;2.00
69222;PMS7003;56514;51.816;-0.026;2022-12-07T13:08:24;1.00;1.00;1.00
69222;PMS7003;56514;51.816;-0.026;2022-12-07T13:11:25;3.00;3.00;2.00
69222;PMS7003;56514;51.816;-0.026;2022-12-07T13:14:38;3.00;3.00;2.50
69222;PMS7003;56514;51.816;-0.026;2022-12-07T13:20:39;3.00;3.00;3.00
69222;PMS7003;56514;51.816;-0.026;2022-12-07T13:23:39;3.75;3.75;3.75
69222;PMS7003;56514;51.816;-0.026;2022-12-07T13:26:41;3.00;3.00;2.00
69222;PMS7003;56514;51.816;-0.026;2022-12-07T13:29:27;4.75;4.75;3.75
69222;PMS7003;56514;51.816;-0.026;2022-12-07T13:32:31;3.25;3.25;3.25
69222;PMS7003;56514;51.816;-0.026;2022-12-07T13:35:36;3.25;3.25;3.00
69222;PMS7003;56514;51.816;-0.026;2022-12-07T13:38:23;3.00;3.00;1.50
69222;PMS7003;56514;51.816;-0.026;2022-12-07T13:41:14;1.00;1.00;1.00
69222;PMS7003;56514;51.816;-0.026;2022-12-07T13:44:03;1.00;1.00;1.00
69222;PMS7003;56514;51.816;-0.026;2022-12-07T13:49:59;4.00;4.00;3.25
69222;PMS7003;56514;51.816;-0.026;2022-12-07T13:52:46;3.00;3.00;3.00
69222;PMS7003;56514;51.816;-0.026;2022-12-07T13:55:32;3.00;3.00;1.50
69222;PMS7003;56514;51.816;-0.026;2022-12-07T13:58:17;4.00;3.00;3.00
69222;PMS7003;56514;51.816;-0.026;2022-12-07T14:01:02;3.00;3.00;3.00
69222;PMS7003;56514;51.816;-0.026;2022-12-07T14:03:47;2.50;1.00;1.00
69222;PMS7003;56514;51.816;-0.026;2022-12-07T14:06:31;3.00;3.00;2.00
69222;PMS7003;56514;51.816;-0.026;2022-12-07T14:09:21;2.50;2.50;2.00
69222;PMS7003;56514;51.816;-0.026;2022-12-07T14:12:07;3.00;3.00;3.00
69222;PMS7003;56514;51.816;-0.026;2022-12-07T14:14:52;3.00;3.00;3.00
69222;PMS7003;56514;51.816;-0.026;2022-12-07T14:17:49;3.50;3.50;3.50
69222;PMS7003;56514;51.816;-0.026;2022-12-07T14:20:39;1.50;1.50;1.50
69222;PMS7003;56514;51.816;-0.026;2022-12-07T14:23:25;3.00;3.00;3.00
69222;PMS7003;56514;51.816;-0.026;2022-12-07T14:26:16;2.50;2.50;1.50
69222;PMS7003;56514;51.816;-0.026;2022-12-07T14:35:13;3.00;3.00;3.00
69222;PMS7003;56514;51.816;-0.026;2022-12-07T14:38:01;5.00;5.00;3.50
69222;PMS7003;56514;51.816;-0.026;2022-12-07T14:40:46;3.00;3.00;3.00
69222;PMS7003;56514;51.816;-0.026;2022-12-07T14:43:30;4.25;4.25;3.50
69222;PMS7003;56514;51.816;-0.026;2022-12-07T14:46:15;3.25;3.25;3.00
69222;PMS7003;56514;51.816;-0.026;2022-12-07T14:49:00;5.50;5.50;4.00
69222;PMS7003;56514;51.816;-0.026;2022-12-07T14:51:46;6.00;6.00;5.00
69222;PMS7003;56514;51.816;-0.026;2022-12-07T14:54:31;1.00;1.00;1.00
69222;PMS7003;56514;51.816;-0.026;2022-12-07T14:57:17;1.50;1.50;1.50
69222;PMS7003;56514;51.816;-0.026;2022-12-07T15:00:03;4.25;4.25;3.25
69222;PMS7003;56514;51.816;-0.026;2022-12-07T15:02:48;3.50;3.50;3.00
69222;PMS7003;56514;51.816;-0.026;2022-12-07T15:05:36;2.00;2.00;2.00
69222;PMS7003;56514;51.816;-0.026;2022-12-07T15:08:22;2.00;2.00;1.00
69222;PMS7003;56514;51.816;-0.026;2022-12-07T15:11:09;1.50;1.50;1.50
69222;PMS7003;56514;51.816;-0.026;2022-12-07T15:13:58;1.00;1.00;1.00
69222;PMS7003;56514;51.816;-0.026;2022-12-07T15:16:58;1.00;1.00;1.00
69222;PMS7003;56514;51.816;-0.026;2022-12-07T15:19:43;3.25;3.25;3.00
69222;PMS7003;56514;51.816;-0.026;2022-12-07T15:22:28;2.50;2.50;1.50
69222;PMS7003;56514;51.816;-0.026;2022-12-07T15:25:14;1.00;1.00;1.00
69222;PMS7003;56514;51.816;-0.026;2022-12-07T15:27:59;0.75;0.75;0.75
69222;PMS7003;56514;51.816;-0.026;2022-12-07T15:30:44;1.00;1.00;1.00
69222;PMS7003;56514;51.816;-0.026;2022-12-07T15:33:29;3.00;3.00;1.50
69222;PMS7003;56514;51.816;-0.026;2022-12-07T15:36:21;1.00;1.00;1.00
69222;PMS7003;56514;51.816;-0.026;2022-12-07T15:39:08;3.25;3.25;3.00
69222;PMS7003;56514;51.816;-0.026;2022-12-07T15:41:53;2.75;2.50;2.50
69222;PMS7003;56514;51.816;-0.026;2022-12-07T15:44:38;2.50;2.50;2.50
69222;PMS7003;56514;51.816;-0.026;2022-12-07T15:47:42;3.00;3.00;1.00
69222;PMS7003;56514;51.816;-0.026;2022-12-07T15:50:31;6.00;3.75;3.50
69222;PMS7003;56514;51.816;-0.026;2022-12-07T15:53:16;1.50;1.50;1.50
69222;PMS7003;56514;51.816;-0.026;2022-12-07T15:56:05;2.50;2.50;1.00
69222;PMS7003;56514;51.816;-0.026;2022-12-07T15:58:51;3.50;3.50;3.00
69222;PMS7003;56514;51.816;-0.026;2022-12-07T16:01:36;3.50;3.50;3.25
69222;PMS7003;56514;51.816;-0.026;2022-12-07T16:04:21;3.00;3.00;3.00
69222;PMS7003;56514;51.816;-0.026;2022-12-07T16:07:07;3.33;3.33;3.33
69222;PMS7003;56514;51.816;-0.026;2022-12-07T16:09:52;3.25;3.25;3.25
69222;PMS7003;56514;51.816;-0.026;2022-12-07T16:12:37;3.25;3.25;3.00
69222;PMS7003;56514;51.816;-0.026;2022-12-07T16:15:22;4.67;4.67;3.33
69222;PMS7003;56514;51.816;-0.026;2022-12-07T16:18:08;4.00;4.00;4.00
69222;PMS7003;56514;51.816;-0.026;2022-12-07T16:20:53;5.00;5.00;4.00
69222;PMS7003;56514;51.816;-0.026;2022-12-07T16:23:38;4.00;4.00;4.00
69222;PMS7003;56514;51.816;-0.026;2022-12-07T16:26:23;3.33;3.33;3.33
69222;PMS7003;56514;51.816;-0.026;2022-12-07T16:29:12;6.00;4.00;3.33
69222;PMS7003;56514;51.816;-0.026;2022-12-07T16:31:57;4.00;4.00;4.00
69222;PMS7003;56514;51.816;-0.026;2022-12-07T16:34:42;7.00;7.00;5.33
69222;PMS7003;56514;51.816;-0.026;2022-12-07T16:37:27;6.67;4.67;4.00
69222;PMS7003;56514;51.816;-0.026;2022-12-07T16:40:11;5.33;3.67;3.00
69222;PMS7003;56514;51.816;-0.026;2022-12-07T16:42:57;4.00;4.00;4.00
69222;PMS7003;56514;51.816;-0.026;2022-12-07T16:45:41;7.00;7.00;6.67
69222;PMS7003;56514;51.816;-0.026;2022-12-07T16:48:26;4.67;4.67;4.33
69222;PMS7003;56514;51.816;-0.026;2022-12-07T16:51:12;6.00;6.00;4.00
69222;PMS7003;56514;51.816;-0.026;2022-12-07T16:53:58;4.00;4.00;3.67
69222;PMS7003;56514;51.816;-0.026;2022-12-07T16:56:43;7.67;7.67;7.00
69222;PMS7003;56514;51.816;-0.026;2022-12-07T16:59:31;7.00;7.00;6.33
69222;PMS7003;56514;51.816;-0.026;2022-12-07T17:02:15;4.67;4.67;4.67
69222;PMS7003;56514;51.816;-0.026;2022-12-07T17:05:01;7.00;7.00;6.67
69222;PMS7003;56514;51.816;-0.026;2022-12-07T17:07:45;6.00;6.00;4.00
69222;PMS7003;56514;51.816;-0.026;2022-12-07T17:10:30;6.00;6.00;4.00
69222;PMS7003;56514;51.816;-0.026;2022-12-07T17:13:19;6.33;6.33;4.67
69222;PMS7003;56514;51.816;-0.026;2022-12-07T17:16:22;6.00;6.00;5.33
69222;PMS7003;56514;51.816;-0.026;2022-12-07T17:19:08;8.33;8.33;7.00
69222;PMS7003;56514;51.816;-0.026;2022-12-07T17:21:55;5.33;5.33;5.33
69222;PMS7003;56514;51.816;-0.026;2022-12-07T17:24:40;7.67;7.67;6.67
69222;PMS7003;56514;51.816;-0.026;2022-12-07T17:27:25;6.00;6.00;5.33
69222;PMS7003;56514;51.816;-0.026;2022-12-07T17:30:10;6.00;6.00;6.00
69222;PMS7003;56514;51.816;-0.026;2022-12-07T17:32:56;4.67;4.67;4.67
69222;PMS7003;56514;51.816;-0.026;2022-12-07T17:35:41;6.67;6.67;6.00
69222;PMS7003;56514;51.816;-0.026;2022-12-07T17:38:27;7.00;7.00;6.33
69222;PMS7003;56514;51.816;-0.026;2022-12-07T17:41:20;9.50;8.75;6.75
69222;PMS7003;56514;51.816;-0.026;2022-12-07T17:44:28;11.75;10.00;7.00
69222;PMS7003;56514;51.816;-0.026;2022-12-07T17:47:14;10.00;10.00;9.33
69222;PMS7003;56514;51.816;-0.026;2022-12-07T17:50:01;12.33;9.33;8.33
69222;PMS7003;56514;51.816;-0.026;2022-12-07T17:52:47;9.00;9.00;6.67
69222;PMS7003;56514;51.816;-0.026;2022-12-07T17:55:52;8.75;8.75;7.00
69222;PMS7003;56514;51.816;-0.026;2022-12-07T17:58:38;9.00;8.33;6.67
69222;PMS7003;56514;51.816;-0.026;2022-12-07T18:01:23;9.33;9.33;7.00
69222;PMS7003;56514;51.816;-0.026;2022-12-07T18:04:08;8.33;8.33;7.67
69222;PMS7003;56514;51.816;-0.026;2022-12-07T18:06:53;9.50;9.50;6.00
69222;PMS7003;56514;51.816;-0.026;2022-12-07T18:09:38;9.00;8.00;6.00